createdAt,value
2023-04-11T00:01:33.694Z,100.00
2023-04-11T00:03:59.711Z,100.00
2023-04-11T00:06:25.758Z,100.00
2023-04-11T00:08:52.166Z,100.00
2023-04-11T00:11:18.441Z,100.00
2023-04-11T00:13:44.632Z,100.00
2023-04-11T00:16:10.991Z,100.00
2023-04-11T00:18:38.900Z,100.00
2023-04-11T00:21:09.640Z,100.00
2023-04-11T00:23:36.087Z,100.00
2023-04-11T00:26:02.625Z,100.00
2023-04-11T00:28:28.576Z,100.00
2023-04-11T00:30:54.592Z,100.00
2023-04-11T00:33:20.527Z,100.00
2023-04-11T00:35:47.097Z,100.00
2023-04-11T00:38:13.045Z,100.00
2023-04-11T00:40:39.093Z,100.00
2023-04-11T00:43:05.082Z,100.00
2023-04-11T00:45:31.840Z,100.00
2023-04-11T00:47:58.004Z,100.00
2023-04-11T00:50:24.422Z,100.00
2023-04-11T00:52:51.253Z,100.00
2023-04-11T00:55:17.151Z,100.00
2023-04-11T00:57:44.122Z,100.00
2023-04-11T01:00:11.181Z,100.00
2023-04-11T01:02:42.410Z,100.00
2023-04-11T01:05:10.450Z,100.00
2023-04-11T01:07:37.459Z,100.00
2023-04-11T01:10:05.198Z,100.00
2023-04-11T01:12:32.541Z,100.00
2023-04-11T01:14:58.747Z,100.00
2023-04-11T01:17:25.844Z,100.00
2023-04-11T01:19:52.222Z,100.00
2023-04-11T01:22:22.441Z,100.00
2023-04-11T01:24:48.793Z,100.00
2023-04-11T01:27:15.060Z,100.00
2023-04-11T01:29:40.967Z,100.00
2023-04-11T01:32:07.389Z,100.00
2023-04-11T01:34:35.304Z,100.00
2023-04-11T01:37:02.006Z,100.00
2023-04-11T01:39:28.084Z,100.00
2023-04-11T01:41:56.794Z,100.00
2023-04-11T01:44:24.831Z,100.00
2023-04-11T01:46:50.868Z,100.00
2023-04-11T01:49:18.196Z,100.00
2023-04-11T01:51:45.131Z,100.00
2023-04-11T01:54:11.144Z,100.00
2023-04-11T01:56:37.096Z,100.00
2023-04-11T01:59:03.785Z,100.00
2023-04-11T02:01:29.944Z,100.00
2023-04-11T02:03:55.985Z,100.00
2023-04-11T02:06:21.993Z,100.00
2023-04-11T02:08:47.898Z,100.00
2023-04-11T02:11:13.813Z,100.00
2023-04-11T02:13:39.766Z,100.00
2023-04-11T02:16:15.619Z,100.00
2023-04-11T02:18:42.680Z,100.00
2023-04-11T02:21:08.742Z,100.00
2023-04-11T02:23:34.751Z,100.00
2023-04-11T02:26:01.727Z,100.00
2023-04-11T02:28:27.680Z,100.00
2023-04-11T02:30:53.798Z,100.00
2023-04-11T02:33:19.929Z,100.00
2023-04-11T02:35:46.726Z,100.00
2023-04-11T02:38:12.838Z,100.00
2023-04-11T02:40:38.740Z,100.00
2023-04-11T02:43:04.666Z,100.00
2023-04-11T02:45:30.887Z,100.00
2023-04-11T02:47:57.720Z,100.00
2023-04-11T02:50:26.394Z,100.00
2023-04-11T02:52:52.835Z,100.00
2023-04-11T02:55:19.118Z,100.00
2023-04-11T02:57:45.059Z,100.00
2023-04-11T03:00:11.508Z,100.00
2023-04-11T03:02:37.588Z,100.00
2023-04-11T03:05:04.571Z,100.00
2023-04-11T03:07:31.801Z,100.00
2023-04-11T03:09:58.270Z,100.00
2023-04-11T03:12:24.190Z,100.00
2023-04-11T03:14:50.263Z,100.00
2023-04-11T03:17:16.242Z,100.00
2023-04-11T03:19:42.122Z,100.00
2023-04-11T03:22:10.836Z,100.00
2023-04-11T03:24:40.168Z,100.00
2023-04-11T03:27:06.283Z,100.00
2023-04-11T03:29:32.266Z,100.00
2023-04-11T03:31:59.097Z,100.00
2023-04-11T03:34:25.988Z,100.00
2023-04-11T03:36:52.199Z,100.00
2023-04-11T03:39:21.391Z,100.00
2023-04-11T03:41:48.190Z,100.00
2023-04-11T03:44:14.754Z,100.00
2023-04-11T03:46:40.646Z,100.00
2023-04-11T03:49:06.642Z,100.00
2023-04-11T03:51:33.000Z,100.00
2023-04-11T03:53:58.961Z,100.00
2023-04-11T03:56:25.033Z,100.00
2023-04-11T03:58:51.019Z,100.00
2023-04-11T04:01:16.956Z,100.00
2023-04-11T04:03:43.128Z,100.00
2023-04-11T04:06:09.321Z,100.00
2023-04-11T04:08:35.273Z,100.00
2023-04-11T04:11:01.146Z,100.00
2023-04-11T04:13:27.076Z,100.00
2023-04-11T04:15:53.179Z,100.00
2023-04-11T04:18:19.144Z,100.00
2023-04-11T04:20:46.370Z,100.00
2023-04-11T04:23:13.376Z,100.00
2023-04-11T04:25:41.439Z,100.00
2023-04-11T04:28:09.213Z,100.00
2023-04-11T04:30:37.305Z,100.00
2023-04-11T04:33:03.796Z,100.00
2023-04-11T04:35:29.734Z,100.00
2023-04-11T04:37:55.701Z,100.00
2023-04-11T04:40:21.921Z,100.00
2023-04-11T04:42:57.641Z,100.00
2023-04-11T04:45:24.776Z,100.00
2023-04-11T04:47:50.734Z,100.00
2023-04-11T04:50:16.704Z,100.00
2023-04-11T04:52:42.697Z,100.00
2023-04-11T04:55:08.901Z,100.00
2023-04-11T04:57:34.821Z,100.00
2023-04-11T05:00:00.777Z,100.00
2023-04-11T05:02:32.152Z,100.00
2023-04-11T05:05:03.292Z,100.00
2023-04-11T05:07:29.806Z,100.00
2023-04-11T05:09:55.684Z,100.00
2023-04-11T05:12:26.330Z,100.00
2023-04-11T05:14:52.485Z,100.00
2023-04-11T05:17:18.476Z,100.00
2023-04-11T05:19:45.080Z,100.00
2023-04-11T05:22:10.986Z,100.00
2023-04-11T05:24:36.929Z,100.00
2023-04-11T05:27:02.965Z,100.00
2023-04-11T05:29:29.337Z,100.00
2023-04-11T05:31:55.394Z,100.00
2023-04-11T05:34:21.328Z,100.00
2023-04-11T05:36:47.301Z,100.00
2023-04-11T05:39:13.319Z,100.00
2023-04-11T05:41:39.300Z,100.00
2023-04-11T05:44:05.398Z,100.00
2023-04-11T05:46:34.976Z,100.00
2023-04-11T05:49:01.048Z,100.00
2023-04-11T05:51:27.027Z,100.00
2023-04-11T05:53:52.949Z,100.00
2023-04-11T05:56:19.113Z,100.00
2023-04-11T05:58:45.061Z,100.00
2023-04-11T06:01:17.778Z,100.00
2023-04-11T06:03:45.500Z,100.00
2023-04-11T06:06:11.706Z,100.00
2023-04-11T06:08:37.924Z,100.00
2023-04-11T06:11:04.243Z,100.00
2023-04-11T06:13:30.187Z,100.00
2023-04-11T06:15:56.188Z,100.00
2023-04-11T06:18:22.250Z,100.00
2023-04-11T06:20:48.931Z,100.00
2023-04-11T06:23:14.909Z,100.00
2023-04-11T06:25:40.975Z,100.00
2023-04-11T06:28:07.116Z,100.00
2023-04-11T06:30:32.987Z,100.00
2023-04-11T06:32:58.976Z,100.00
2023-04-11T06:35:25.061Z,100.00
2023-04-11T06:37:51.599Z,100.00
2023-04-11T06:40:19.868Z,100.00
2023-04-11T06:42:46.709Z,100.00
2023-04-11T06:45:13.353Z,100.00
2023-04-11T06:47:39.830Z,100.00
2023-04-11T06:50:06.410Z,100.00
2023-04-11T06:52:32.298Z,100.00
2023-04-11T06:54:58.265Z,100.00
2023-04-11T06:57:24.359Z,100.00
2023-04-11T06:59:50.446Z,100.00
2023-04-11T07:02:16.435Z,100.00
2023-04-11T07:04:42.657Z,100.00
2023-04-11T07:07:08.654Z,100.00
2023-04-11T07:09:35.267Z,100.00
2023-04-11T07:12:01.549Z,100.00
2023-04-11T07:14:27.608Z,100.00
2023-04-11T07:16:53.528Z,100.00
2023-04-11T07:19:19.621Z,100.00
2023-04-11T07:21:45.550Z,100.00
2023-04-11T07:24:12.581Z,100.00
2023-04-11T07:26:41.644Z,100.00
2023-04-11T07:29:10.993Z,100.00
2023-04-11T07:31:38.346Z,100.00
2023-04-11T07:34:04.336Z,100.00
2023-04-11T07:36:30.948Z,100.00
2023-04-11T07:38:59.171Z,100.00
2023-04-11T07:41:25.130Z,100.00
2023-04-11T07:43:51.037Z,100.00
2023-04-11T07:46:17.105Z,100.00
2023-04-11T07:48:43.132Z,100.00
2023-04-11T07:51:09.154Z,100.00
2023-04-11T07:53:35.694Z,100.00
2023-04-11T07:56:01.729Z,100.00
2023-04-11T07:58:27.898Z,100.00
2023-04-11T08:00:53.908Z,100.00
2023-04-11T08:03:20.356Z,100.00
2023-04-11T08:05:46.698Z,100.00
2023-04-11T08:08:13.024Z,100.00
2023-04-11T08:10:38.953Z,100.00
2023-04-11T08:13:04.916Z,100.00
2023-04-11T08:15:31.187Z,100.00
2023-04-11T08:17:57.259Z,100.00
2023-04-11T08:20:24.011Z,100.00
2023-04-11T08:22:50.093Z,100.00
2023-04-11T08:25:19.274Z,100.00
2023-04-11T08:27:45.211Z,100.00
2023-04-11T08:30:11.635Z,100.00
2023-04-11T08:32:38.063Z,100.00
2023-04-11T08:35:04.786Z,100.00
2023-04-11T08:37:30.885Z,100.00
2023-04-11T08:39:56.940Z,100.00
2023-04-11T08:42:24.465Z,100.00
2023-04-11T08:44:58.501Z,100.00
2023-04-11T08:47:24.963Z,100.00
2023-04-11T08:49:52.100Z,100.00
2023-04-11T08:52:19.508Z,100.00
2023-04-11T08:54:46.196Z,100.00
2023-04-11T08:57:25.446Z,100.00
2023-04-11T08:59:53.335Z,100.00
2023-04-11T09:02:19.464Z,100.00
2023-04-11T09:04:46.721Z,99.51
2023-04-11T09:07:14.899Z,100.00
2023-04-11T09:09:40.979Z,100.00
2023-04-11T09:12:08.291Z,100.00
2023-04-11T09:14:34.546Z,100.00
2023-04-11T09:17:05.724Z,99.31
2023-04-11T09:19:33.511Z,93.62
2023-04-11T09:22:01.150Z,96.29
2023-04-11T09:24:29.373Z,98.05
2023-04-11T09:27:08.086Z,93.46
2023-04-11T09:29:42.812Z,95.35
2023-04-11T09:32:31.935Z,95.86
2023-04-11T09:35:27.831Z,92.56
2023-04-11T09:37:56.088Z,90.63
2023-04-11T09:40:27.038Z,91.61
2023-04-11T09:42:58.591Z,93.61
2023-04-11T09:45:25.512Z,92.10
2023-04-11T09:47:53.835Z,92.31
2023-04-11T09:50:20.159Z,92.28
2023-04-11T09:52:46.675Z,87.20
2023-04-11T09:55:18.927Z,91.04
2023-04-11T09:57:47.392Z,87.98
2023-04-11T10:00:16.253Z,83.91
2023-04-11T10:02:44.451Z,82.78
2023-04-11T10:05:13.669Z,82.72
2023-04-11T10:07:47.496Z,81.62
2023-04-11T10:10:19.381Z,82.26
2023-04-11T10:12:45.758Z,81.49
2023-04-11T10:15:12.250Z,77.10
2023-04-11T10:17:39.977Z,72.74
2023-04-11T10:20:42.745Z,73.20
2023-04-11T10:23:09.662Z,71.32
2023-04-11T10:25:50.311Z,71.79
2023-04-11T10:28:34.468Z,69.93
2023-04-11T10:31:22.346Z,67.22
2023-04-11T10:34:13.691Z,66.92
2023-04-11T10:37:05.484Z,65.69
2023-04-11T10:39:59.810Z,64.02
2023-04-11T10:42:46.099Z,61.80
2023-04-11T10:45:25.886Z,62.23
2023-04-11T10:48:02.942Z,59.94
2023-04-11T10:50:36.233Z,57.17
2023-04-11T10:53:04.703Z,57.61
2023-04-11T10:55:43.270Z,55.94
2023-04-11T10:58:19.064Z,55.34
2023-04-11T11:00:51.712Z,55.69
2023-04-11T11:03:22.997Z,56.94
2023-04-11T11:06:02.427Z,57.31
2023-04-11T11:08:42.197Z,57.25
2023-04-11T11:11:09.903Z,57.20
2023-04-11T11:13:43.357Z,55.96
2023-04-11T11:16:13.763Z,57.72
2023-04-11T11:18:39.918Z,56.95
2023-04-11T11:21:09.289Z,56.46
2023-04-11T11:23:40.164Z,57.28
2023-04-11T11:26:06.984Z,55.06
2023-04-11T11:28:32.893Z,53.20
2023-04-11T11:30:58.829Z,50.98
2023-04-11T11:33:28.608Z,51.41
2023-04-11T11:36:03.787Z,50.46
2023-04-11T11:38:30.712Z,49.74
2023-04-11T11:40:58.301Z,47.90
2023-04-11T11:43:27.955Z,46.37
2023-04-11T11:46:14.305Z,42.44
2023-04-11T11:48:58.123Z,42.22
2023-04-11T11:51:24.997Z,44.34
2023-04-11T11:54:04.954Z,44.46
2023-04-11T11:56:31.155Z,44.15
2023-04-11T11:58:57.293Z,45.64
2023-04-11T12:01:23.307Z,42.31
2023-04-11T12:03:52.995Z,43.25
2023-04-11T12:06:20.126Z,44.43
2023-04-11T12:08:51.282Z,45.05
2023-04-11T12:11:17.810Z,43.33
2023-04-11T12:13:47.148Z,44.30
2023-04-11T12:16:14.072Z,43.48
2023-04-11T12:18:41.626Z,41.28
2023-04-11T12:21:07.543Z,41.10
2023-04-11T12:23:33.494Z,39.72
2023-04-11T12:25:59.973Z,39.90
2023-04-11T12:28:25.906Z,39.15
2023-04-11T12:30:51.833Z,39.68
2023-04-11T12:33:17.735Z,40.72
2023-04-11T12:35:43.658Z,39.56
2023-04-11T12:38:10.938Z,39.01
2023-04-11T12:40:39.284Z,39.34
2023-04-11T12:43:05.332Z,39.64
2023-04-11T12:45:34.180Z,38.50
2023-04-11T12:48:00.994Z,38.51
2023-04-11T12:50:27.042Z,38.91
2023-04-11T12:52:53.014Z,38.62
2023-04-11T12:55:19.149Z,41.23
2023-04-11T12:57:45.311Z,41.88
2023-04-11T13:00:12.125Z,41.58
2023-04-11T13:02:43.864Z,41.89
2023-04-11T13:05:13.222Z,44.38
2023-04-11T13:07:39.289Z,46.18
2023-04-11T13:10:08.919Z,48.91
2023-04-11T13:12:40.282Z,48.87
2023-04-11T13:15:14.246Z,45.05
2023-04-11T13:17:40.309Z,44.11
2023-04-11T13:20:09.194Z,42.45
2023-04-11T13:22:36.723Z,44.93
2023-04-11T13:25:03.067Z,45.37
2023-04-11T13:27:29.018Z,46.08
2023-04-11T13:29:54.974Z,46.50
2023-04-11T13:32:20.785Z,47.88
2023-04-11T13:34:46.678Z,47.63
2023-04-11T13:37:12.632Z,47.58
2023-04-11T13:39:38.522Z,47.44
2023-04-11T13:42:04.531Z,48.13
2023-04-11T13:44:32.854Z,49.06
2023-04-11T13:46:58.998Z,53.14
2023-04-11T13:49:24.983Z,51.94
2023-04-11T13:51:50.839Z,49.01
2023-04-11T13:54:16.721Z,46.61
2023-04-11T13:56:42.581Z,45.47
2023-04-11T13:59:08.496Z,43.46
2023-04-11T14:01:34.418Z,45.23
2023-04-11T14:04:00.656Z,46.24
2023-04-11T14:06:26.822Z,45.61
2023-04-11T14:08:52.653Z,47.34
2023-04-11T14:11:18.526Z,46.51
2023-04-11T14:13:44.346Z,48.68
2023-04-11T14:16:10.470Z,50.39
2023-04-11T14:18:36.502Z,50.06
2023-04-11T14:21:05.173Z,51.41
2023-04-11T14:23:31.115Z,51.74
2023-04-11T14:25:57.175Z,50.63
2023-04-11T14:28:26.494Z,50.78
2023-04-11T14:30:52.825Z,49.91
2023-04-11T14:33:18.959Z,50.66
2023-04-11T14:35:46.586Z,48.94
2023-04-11T14:38:14.331Z,47.16
2023-04-11T14:40:40.869Z,43.44
2023-04-11T14:43:06.804Z,42.63
2023-04-11T14:45:34.288Z,41.82
2023-04-11T14:48:00.633Z,42.30
2023-04-11T14:50:29.155Z,42.61
2023-04-11T14:52:55.214Z,43.41
2023-04-11T14:55:21.239Z,42.65
2023-04-11T14:57:50.865Z,42.08
2023-04-11T15:00:23.877Z,41.43
2023-04-11T15:02:54.920Z,42.51
2023-04-11T15:05:23.274Z,39.98
2023-04-11T15:07:50.923Z,39.00
2023-04-11T15:10:20.100Z,39.88
2023-04-11T15:12:46.347Z,40.48
2023-04-11T15:15:12.885Z,41.49
2023-04-11T15:17:46.398Z,42.80
2023-04-11T15:20:16.197Z,44.89
2023-04-11T15:22:44.478Z,46.86
2023-04-11T15:25:13.091Z,47.11
2023-04-11T15:27:39.838Z,48.77
2023-04-11T15:32:47.637Z,50.93
2023-04-11T15:35:13.654Z,51.40
2023-04-11T15:37:41.156Z,50.20
2023-04-11T15:40:11.225Z,50.51
2023-04-11T15:42:37.616Z,50.94
2023-04-11T15:45:04.273Z,51.87
2023-04-11T15:47:30.716Z,51.07
2023-04-11T15:49:58.316Z,48.77
2023-04-11T15:52:24.164Z,48.92
2023-04-11T15:54:50.005Z,50.44
2023-04-11T15:57:19.360Z,51.48
2023-04-11T15:59:45.676Z,50.90
2023-04-11T16:02:11.869Z,51.54
2023-04-11T16:04:38.349Z,52.30
2023-04-11T16:07:05.902Z,50.47
2023-04-11T16:09:32.102Z,49.19
2023-04-11T16:11:57.915Z,48.69
2023-04-11T16:14:24.355Z,49.09
2023-04-11T16:16:52.869Z,49.13
2023-04-11T16:19:18.953Z,49.31
2023-04-11T16:21:45.062Z,49.43
2023-04-11T16:24:10.942Z,48.94
2023-04-11T16:26:36.920Z,47.54
2023-04-11T16:29:03.244Z,47.02
2023-04-11T16:31:31.318Z,45.44
2023-04-11T16:33:57.550Z,45.12
2023-04-11T16:36:23.695Z,44.86
2023-04-11T16:38:49.842Z,44.66
2023-04-11T16:41:18.794Z,44.30
2023-04-11T16:43:44.860Z,45.49
2023-04-11T16:46:12.796Z,45.21
2023-04-11T16:48:39.584Z,45.11
2023-04-11T16:51:05.842Z,45.88
2023-04-11T16:53:31.778Z,45.77
2023-04-11T16:55:57.681Z,45.98
2023-04-11T16:58:23.589Z,46.31
2023-04-11T17:00:50.428Z,46.77
2023-04-11T17:03:17.128Z,47.00
2023-04-11T17:05:45.191Z,48.86
2023-04-11T17:08:11.703Z,50.26
2023-04-11T17:10:37.605Z,51.24
2023-04-11T17:13:03.434Z,51.93
2023-04-11T17:15:29.960Z,53.97
2023-04-11T17:17:56.057Z,54.61
2023-04-11T17:20:22.621Z,56.08
2023-04-11T17:22:48.540Z,56.65
2023-04-11T17:25:14.434Z,58.10
2023-04-11T17:27:40.603Z,59.55
2023-04-11T17:30:11.479Z,58.76
2023-04-11T17:32:38.372Z,59.61
2023-04-11T17:35:07.621Z,59.86
2023-04-11T17:37:35.176Z,61.38
2023-04-11T17:40:01.369Z,63.03
2023-04-11T17:42:27.236Z,63.06
2023-04-11T17:44:54.657Z,63.18
2023-04-11T17:47:21.737Z,64.44
2023-04-11T17:49:47.845Z,64.68
2023-04-11T17:52:13.739Z,64.74
2023-04-11T17:54:39.571Z,64.66
2023-04-11T17:57:06.197Z,66.19
2023-04-11T17:59:32.090Z,66.97
2023-04-11T18:01:58.032Z,67.86
2023-04-11T18:04:24.153Z,68.87
2023-04-11T18:06:50.219Z,68.26
2023-04-11T18:09:16.472Z,68.94
2023-04-11T18:11:43.115Z,70.42
2023-04-11T18:14:09.152Z,70.54
2023-04-11T18:16:35.551Z,72.31
2023-04-11T18:19:01.452Z,72.32
2023-04-11T18:21:27.496Z,73.43
2023-04-11T18:23:53.529Z,74.37
2023-04-11T18:26:19.539Z,73.50
2023-04-11T18:28:45.371Z,74.66
2023-04-11T18:31:11.363Z,76.37
2023-04-11T18:33:41.908Z,75.76
2023-04-11T18:36:09.158Z,76.01
2023-04-11T18:38:35.112Z,76.64
2023-04-11T18:41:05.826Z,77.16
2023-04-11T18:43:33.352Z,77.33
2023-04-11T18:46:00.936Z,77.76
2023-04-11T18:48:26.809Z,77.25
2023-04-11T18:50:59.842Z,79.07
2023-04-11T18:53:27.593Z,78.89
2023-04-11T18:55:54.074Z,78.23
2023-04-11T18:58:23.125Z,80.27
2023-04-11T19:00:50.980Z,81.13
2023-04-11T19:03:17.321Z,81.94
2023-04-11T19:05:45.172Z,82.24
2023-04-11T19:08:11.417Z,81.80
2023-04-11T19:10:39.229Z,81.92
2023-04-11T19:13:05.697Z,82.89
2023-04-11T19:15:31.596Z,83.37
2023-04-11T19:17:57.694Z,84.35
2023-04-11T19:20:28.577Z,85.75
2023-04-11T19:22:54.560Z,85.37
2023-04-11T19:25:20.548Z,85.74
2023-04-11T19:27:46.706Z,84.94
2023-04-11T19:30:12.846Z,85.20
2023-04-11T19:32:42.217Z,85.14
2023-04-11T19:35:09.526Z,85.67
2023-04-11T19:37:35.828Z,85.10
2023-04-11T19:40:06.328Z,85.59
2023-04-11T19:42:35.924Z,85.64
2023-04-11T19:45:03.750Z,85.93
2023-04-11T19:47:30.698Z,85.56
2023-04-11T19:50:00.176Z,85.65
2023-04-11T19:52:26.706Z,85.54
2023-04-11T19:54:54.146Z,86.10
2023-04-11T19:57:21.868Z,85.54
2023-04-11T19:59:49.142Z,84.28
2023-04-11T20:02:15.112Z,84.75
2023-04-11T20:04:43.938Z,85.79
2023-04-11T20:07:09.844Z,84.92
2023-04-11T20:09:35.943Z,84.88
2023-04-11T20:12:02.622Z,83.25
2023-04-11T20:14:28.480Z,83.28
2023-04-11T20:16:54.435Z,81.97
2023-04-11T20:19:21.367Z,82.76
2023-04-11T20:21:47.383Z,82.49
2023-04-11T20:24:14.707Z,83.22
2023-04-11T20:26:40.541Z,83.13
2023-04-11T20:29:07.223Z,83.86
2023-04-11T20:31:33.530Z,83.96
2023-04-11T20:34:00.810Z,84.08
2023-04-11T20:36:28.654Z,84.52
2023-04-11T20:38:55.217Z,85.07
2023-04-11T20:41:21.684Z,85.88
2023-04-11T20:43:47.561Z,86.23
2023-04-11T20:46:13.563Z,85.92
2023-04-11T20:48:42.318Z,87.55
2023-04-11T20:51:09.110Z,86.97
2023-04-11T20:53:35.522Z,85.30
2023-04-11T20:56:01.869Z,85.83
2023-04-11T20:58:27.789Z,85.85
2023-04-11T21:00:54.040Z,85.33
2023-04-11T21:03:20.544Z,83.82
2023-04-11T21:05:46.525Z,83.42
2023-04-11T21:08:13.380Z,83.02
2023-04-11T21:10:39.387Z,81.77
2023-04-11T21:13:05.182Z,81.81
2023-04-11T21:15:34.922Z,82.49
2023-04-11T21:18:06.111Z,82.01
2023-04-11T21:20:33.822Z,80.75
2023-04-11T21:22:59.960Z,80.52
2023-04-11T21:25:25.972Z,80.21
2023-04-11T21:27:52.169Z,80.44
2023-04-11T21:30:18.481Z,78.92
2023-04-11T21:32:45.013Z,79.44
2023-04-11T21:35:11.389Z,78.53
2023-04-11T21:37:37.289Z,79.00
2023-04-11T21:40:03.675Z,79.25
2023-04-11T21:42:30.870Z,78.03
2023-04-11T21:44:57.039Z,78.50
2023-04-11T21:47:22.885Z,78.86
2023-04-11T21:49:49.177Z,78.13
2023-04-11T21:52:15.086Z,77.62
2023-04-11T21:54:44.313Z,75.63
2023-04-11T21:57:10.509Z,76.25
2023-04-11T21:59:37.794Z,76.82
2023-04-11T22:02:03.760Z,77.04
2023-04-11T22:04:31.385Z,77.22
2023-04-11T22:06:57.651Z,77.99
2023-04-11T22:09:23.725Z,77.69
2023-04-11T22:11:49.936Z,76.82
2023-04-11T22:14:15.979Z,76.32
2023-04-11T22:16:48.180Z,76.93
2023-04-11T22:19:17.193Z,77.57
2023-04-11T22:21:54.900Z,77.17
2023-04-11T22:24:30.187Z,77.45
2023-04-11T22:26:57.509Z,77.84
2023-04-11T22:29:29.439Z,77.52
2023-04-11T22:31:56.563Z,77.61
2023-04-11T22:34:23.776Z,77.72
2023-04-11T22:36:49.622Z,78.12
2023-04-11T22:39:15.669Z,79.22
2023-04-11T22:41:41.553Z,77.63
2023-04-11T22:44:07.471Z,78.02
2023-04-11T22:46:38.777Z,78.37
2023-04-11T22:49:05.766Z,79.20
2023-04-11T22:51:31.968Z,79.21
2023-04-11T22:53:58.138Z,79.05
2023-04-11T22:56:24.308Z,78.35
2023-04-11T22:58:51.932Z,77.99
2023-04-11T23:01:18.041Z,79.37
2023-04-11T23:03:43.876Z,78.99
2023-04-11T23:06:10.214Z,79.26
2023-04-11T23:08:36.367Z,80.29
2023-04-11T23:11:02.412Z,80.92
2023-04-11T23:13:28.454Z,81.52
2023-04-11T23:15:54.936Z,80.58
2023-04-11T23:18:20.769Z,81.01
2023-04-11T23:20:49.908Z,81.96
2023-04-11T23:23:16.049Z,83.40
2023-04-11T23:25:42.208Z,84.08
2023-04-11T23:28:08.239Z,83.58
2023-04-11T23:30:35.847Z,85.17
2023-04-11T23:33:02.120Z,86.14
2023-04-11T23:35:28.227Z,85.83
2023-04-11T23:37:54.223Z,88.48
2023-04-11T23:40:20.668Z,89.52
2023-04-11T23:42:46.530Z,89.30
2023-04-11T23:45:14.233Z,90.57
2023-04-11T23:47:40.526Z,91.28
2023-04-11T23:50:08.330Z,92.36
2023-04-11T23:52:34.515Z,93.24
2023-04-11T23:55:00.351Z,94.22
2023-04-11T23:57:26.394Z,94.40
2023-04-11T23:59:52.592Z,95.45
